sensor_id;sensor_type;location;lat;lon;timestamp;temperature;humidity
3752;DHT22;50827;47.014;7.652;2023-12-20T00:02:13;4.60;99.90
3752;DHT22;50827;47.014;7.652;2023-12-20T00:04:39;4.60;99.90
3752;DHT22;50827;47.014;7.652;2023-12-20T00:07:06;4.60;99.90
3752;DHT22;50827;47.014;7.652;2023-12-20T00:09:33;4.60;99.90
3752;DHT22;50827;47.014;7.652;2023-12-20T00:12:00;4.60;99.90
3752;DHT22;50827;47.014;7.652;2023-12-20T00:14:27;4.60;99.90
3752;DHT22;50827;47.014;7.652;2023-12-20T00:16:54;4.70;99.90
3752;DHT22;50827;47.014;7.652;2023-12-20T00:19:21;4.60;99.90
3752;DHT22;50827;47.014;7.652;2023-12-20T00:21:48;4.60;99.90
3752;DHT22;50827;47.014;7.652;2023-12-20T00:24:14;4.60;99.90
3752;DHT22;50827;47.014;7.652;2023-12-20T00:26:41;4.60;99.90
3752;DHT22;50827;47.014;7.652;2023-12-20T00:29:08;4.60;99.90
3752;DHT22;50827;47.014;7.652;2023-12-20T00:31:35;4.60;99.90
3752;DHT22;50827;47.014;7.652;2023-12-20T00:34:02;4.60;99.90
3752;DHT22;50827;47.014;7.652;2023-12-20T00:36:29;4.50;99.90
3752;DHT22;50827;47.014;7.652;2023-12-20T00:38:56;4.40;99.90
3752;DHT22;50827;47.014;7.652;2023-12-20T00:41:23;4.40;99.90
3752;DHT22;50827;47.014;7.652;2023-12-20T00:43:50;4.40;99.90
3752;DHT22;50827;47.014;7.652;2023-12-20T00:46:16;4.40;99.90
3752;DHT22;50827;47.014;7.652;2023-12-20T00:48:43;4.40;99.90
3752;DHT22;50827;47.014;7.652;2023-12-20T00:51:12;4.40;99.90
3752;DHT22;50827;47.014;7.652;2023-12-20T00:53:38;4.40;99.90
3752;DHT22;50827;47.014;7.652;2023-12-20T00:56:05;4.40;99.90
3752;DHT22;50827;47.014;7.652;2023-12-20T00:58:32;4.40;99.90
3752;DHT22;50827;47.014;7.652;2023-12-20T01:00:59;4.40;99.90
3752;DHT22;50827;47.014;7.652;2023-12-20T01:03:26;4.40;99.90
3752;DHT22;50827;47.014;7.652;2023-12-20T01:05:53;4.40;99.90
3752;DHT22;50827;47.014;7.652;2023-12-20T01:08:20;4.50;99.90
3752;DHT22;50827;47.014;7.652;2023-12-20T01:10:46;4.50;99.90
3752;DHT22;50827;47.014;7.652;2023-12-20T01:13:13;4.50;99.90
3752;DHT22;50827;47.014;7.652;2023-12-20T01:15:40;4.50;99.90
3752;DHT22;50827;47.014;7.652;2023-12-20T01:18:08;4.50;99.90
3752;DHT22;50827;47.014;7.652;2023-12-20T01:20:35;4.50;99.90
3752;DHT22;50827;47.014;7.652;2023-12-20T01:23:02;4.50;99.90
3752;DHT22;50827;47.014;7.652;2023-12-20T01:25:29;4.50;99.90
3752;DHT22;50827;47.014;7.652;2023-12-20T01:27:56;4.60;99.90
3752;DHT22;50827;47.014;7.652;2023-12-20T01:30:25;4.60;99.90
3752;DHT22;50827;47.014;7.652;2023-12-20T01:32:52;4.70;99.90
3752;DHT22;50827;47.014;7.652;2023-12-20T01:35:19;4.70;99.90
3752;DHT22;50827;47.014;7.652;2023-12-20T01:37:46;4.70;99.90
3752;DHT22;50827;47.014;7.652;2023-12-20T01:40:13;4.70;99.90
3752;DHT22;50827;47.014;7.652;2023-12-20T01:42:40;4.80;99.90
3752;DHT22;50827;47.014;7.652;2023-12-20T01:45:07;4.80;99.90
3752;DHT22;50827;47.014;7.652;2023-12-20T01:47:35;4.80;99.90
3752;DHT22;50827;47.014;7.652;2023-12-20T01:50:03;4.80;99.90
3752;DHT22;50827;47.014;7.652;2023-12-20T01:52:31;4.90;99.90
3752;DHT22;50827;47.014;7.652;2023-12-20T01:55:00;4.90;99.90
3752;DHT22;50827;47.014;7.652;2023-12-20T01:57:30;4.90;99.90
3752;DHT22;50827;47.014;7.652;2023-12-20T01:59:57;4.90;99.90
3752;DHT22;50827;47.014;7.652;2023-12-20T02:08:01;4.90;99.90
3752;DHT22;50827;47.014;7.652;2023-12-20T02:10:28;5.00;99.90
3752;DHT22;50827;47.014;7.652;2023-12-20T02:13:04;5.00;99.90
3752;DHT22;50827;47.014;7.652;2023-12-20T02:15:31;5.00;99.90
3752;DHT22;50827;47.014;7.652;2023-12-20T02:17:59;5.00;99.90
3752;DHT22;50827;47.014;7.652;2023-12-20T02:20:25;5.00;99.90
3752;DHT22;50827;47.014;7.652;2023-12-20T02:22:52;5.00;99.90
3752;DHT22;50827;47.014;7.652;2023-12-20T02:25:22;5.00;99.90
3752;DHT22;50827;47.014;7.652;2023-12-20T02:27:52;5.00;99.90
3752;DHT22;50827;47.014;7.652;2023-12-20T02:30:20;5.00;99.90
3752;DHT22;50827;47.014;7.652;2023-12-20T02:32:48;5.00;99.90
3752;DHT22;50827;47.014;7.652;2023-12-20T02:35:25;5.00;99.90
3752;DHT22;50827;47.014;7.652;2023-12-20T02:37:53;5.00;99.90
3752;DHT22;50827;47.014;7.652;2023-12-20T02:40:26;5.10;99.90
3752;DHT22;50827;47.014;7.652;2023-12-20T02:42:56;5.10;99.90
3752;DHT22;50827;47.014;7.652;2023-12-20T02:45:23;5.00;99.90
3752;DHT22;50827;47.014;7.652;2023-12-20T02:47:52;5.00;99.90
3752;DHT22;50827;47.014;7.652;2023-12-20T02:50:20;5.00;99.90
3752;DHT22;50827;47.014;7.652;2023-12-20T02:52:50;5.00;99.90
3752;DHT22;50827;47.014;7.652;2023-12-20T02:55:20;5.00;99.90
3752;DHT22;50827;47.014;7.652;2023-12-20T02:57:50;4.90;99.90
3752;DHT22;50827;47.014;7.652;2023-12-20T03:00:16;4.90;99.90
3752;DHT22;50827;47.014;7.652;2023-12-20T03:02:46;4.90;99.90
3752;DHT22;50827;47.014;7.652;2023-12-20T03:05:16;4.90;99.90
3752;DHT22;50827;47.014;7.652;2023-12-20T03:07:43;4.90;99.90
3752;DHT22;50827;47.014;7.652;2023-12-20T03:10:10;4.90;99.90
3752;DHT22;50827;47.014;7.652;2023-12-20T03:12:49;4.90;99.90
3752;DHT22;50827;47.014;7.652;2023-12-20T03:15:16;4.90;99.90
3752;DHT22;50827;47.014;7.652;2023-12-20T03:17:43;5.00;99.90
3752;DHT22;50827;47.014;7.652;2023-12-20T03:20:14;4.90;99.90
3752;DHT22;50827;47.014;7.652;2023-12-20T03:22:44;4.90;99.90
3752;DHT22;50827;47.014;7.652;2023-12-20T03:25:10;4.90;99.90
3752;DHT22;50827;47.014;7.652;2023-12-20T03:27:42;4.90;99.90
3752;DHT22;50827;47.014;7.652;2023-12-20T03:30:10;4.90;99.90
3752;DHT22;50827;47.014;7.652;2023-12-20T03:32:40;4.90;99.90
3752;DHT22;50827;47.014;7.652;2023-12-20T03:35:10;5.00;99.90
3752;DHT22;50827;47.014;7.652;2023-12-20T03:37:37;5.10;99.90
3752;DHT22;50827;47.014;7.652;2023-12-20T03:40:04;5.10;99.90
3752;DHT22;50827;47.014;7.652;2023-12-20T03:42:36;5.20;99.90
3752;DHT22;50827;47.014;7.652;2023-12-20T03:45:04;5.20;99.90
3752;DHT22;50827;47.014;7.652;2023-12-20T03:47:34;5.20;99.90
3752;DHT22;50827;47.014;7.652;2023-12-20T03:50:01;5.20;99.90
3752;DHT22;50827;47.014;7.652;2023-12-20T03:52:31;5.30;99.90
3752;DHT22;50827;47.014;7.652;2023-12-20T03:55:05;5.30;99.90
3752;DHT22;50827;47.014;7.652;2023-12-20T03:57:32;5.30;99.90
3752;DHT22;50827;47.014;7.652;2023-12-20T03:59:59;5.30;99.90
3752;DHT22;50827;47.014;7.652;2023-12-20T04:02:25;5.30;99.90
3752;DHT22;50827;47.014;7.652;2023-12-20T04:04:55;5.30;99.90
3752;DHT22;50827;47.014;7.652;2023-12-20T04:07:25;5.40;99.90
3752;DHT22;50827;47.014;7.652;2023-12-20T04:09:55;5.40;99.90
3752;DHT22;50827;47.014;7.652;2023-12-20T04:12:21;5.40;99.90
3752;DHT22;50827;47.014;7.652;2023-12-20T04:14:52;5.40;99.90
3752;DHT22;50827;47.014;7.652;2023-12-20T04:17:19;5.40;99.90
3752;DHT22;50827;47.014;7.652;2023-12-20T04:19:50;5.40;99.90
3752;DHT22;50827;47.014;7.652;2023-12-20T04:22:18;5.50;99.90
3752;DHT22;50827;47.014;7.652;2023-12-20T04:24:48;5.50;99.90
3752;DHT22;50827;47.014;7.652;2023-12-20T04:27:20;5.50;99.90
3752;DHT22;50827;47.014;7.652;2023-12-20T04:29:46;5.50;99.90
3752;DHT22;50827;47.014;7.652;2023-12-20T04:32:13;5.50;99.90
3752;DHT22;50827;47.014;7.652;2023-12-20T04:34:41;5.50;99.90
3752;DHT22;50827;47.014;7.652;2023-12-20T04:37:11;5.50;99.90
3752;DHT22;50827;47.014;7.652;2023-12-20T04:39:41;5.50;99.90
3752;DHT22;50827;47.014;7.652;2023-12-20T04:42:12;5.50;99.90
3752;DHT22;50827;47.014;7.652;2023-12-20T04:44:38;5.60;99.90
3752;DHT22;50827;47.014;7.652;2023-12-20T04:47:06;5.60;99.90
3752;DHT22;50827;47.014;7.652;2023-12-20T04:49:35;5.60;99.90
3752;DHT22;50827;47.014;7.652;2023-12-20T04:52:02;5.60;99.90
3752;DHT22;50827;47.014;7.652;2023-12-20T04:54:30;5.60;99.90
3752;DHT22;50827;47.014;7.652;2023-12-20T04:57:00;5.60;99.90
3752;DHT22;50827;47.014;7.652;2023-12-20T04:59:30;5.70;99.90
3752;DHT22;50827;47.014;7.652;2023-12-20T05:02:03;5.70;99.90
3752;DHT22;50827;47.014;7.652;2023-12-20T05:04:30;5.70;99.90
3752;DHT22;50827;47.014;7.652;2023-12-20T05:07:00;5.70;99.90
3752;DHT22;50827;47.014;7.652;2023-12-20T05:09:30;5.70;99.90
3752;DHT22;50827;47.014;7.652;2023-12-20T05:12:00;5.60;99.90
3752;DHT22;50827;47.014;7.652;2023-12-20T05:14:30;5.70;99.90
3752;DHT22;50827;47.014;7.652;2023-12-20T05:16:58;5.70;99.90
3752;DHT22;50827;47.014;7.652;2023-12-20T05:19:25;5.70;99.90
3752;DHT22;50827;47.014;7.652;2023-12-20T05:22:01;5.60;99.90
3752;DHT22;50827;47.014;7.652;2023-12-20T05:24:30;5.60;99.90
3752;DHT22;50827;47.014;7.652;2023-12-20T05:27:00;5.60;99.90
3752;DHT22;50827;47.014;7.652;2023-12-20T05:29:27;5.60;99.90
3752;DHT22;50827;47.014;7.652;2023-12-20T05:31:58;5.60;99.90
3752;DHT22;50827;47.014;7.652;2023-12-20T05:34:28;5.70;99.90
3752;DHT22;50827;47.014;7.652;2023-12-20T05:36:55;5.70;99.90
3752;DHT22;50827;47.014;7.652;2023-12-20T05:39:22;5.70;99.90
3752;DHT22;50827;47.014;7.652;2023-12-20T05:41:49;5.70;99.90
3752;DHT22;50827;47.014;7.652;2023-12-20T05:44:16;5.70;99.90
3752;DHT22;50827;47.014;7.652;2023-12-20T05:46:43;5.70;99.90
3752;DHT22;50827;47.014;7.652;2023-12-20T05:49:10;5.70;99.90
3752;DHT22;50827;47.014;7.652;2023-12-20T05:51:37;5.70;99.90
3752;DHT22;50827;47.014;7.652;2023-12-20T05:54:04;5.70;99.90
3752;DHT22;50827;47.014;7.652;2023-12-20T05:56:33;5.70;99.90
3752;DHT22;50827;47.014;7.652;2023-12-20T05:59:00;5.80;99.90
3752;DHT22;50827;47.014;7.652;2023-12-20T06:01:26;5.70;99.90
3752;DHT22;50827;47.014;7.652;2023-12-20T06:03:53;5.70;99.90
3752;DHT22;50827;47.014;7.652;2023-12-20T06:06:21;5.70;99.90
3752;DHT22;50827;47.014;7.652;2023-12-20T06:08:48;5.70;99.90
3752;DHT22;50827;47.014;7.652;2023-12-20T06:11:15;5.70;99.90
3752;DHT22;50827;47.014;7.652;2023-12-20T06:13:41;5.70;99.90
3752;DHT22;50827;47.014;7.652;2023-12-20T06:16:08;5.80;99.90
3752;DHT22;50827;47.014;7.652;2023-12-20T06:18:35;5.80;99.90
3752;DHT22;50827;47.014;7.652;2023-12-20T06:21:04;5.80;99.90
3752;DHT22;50827;47.014;7.652;2023-12-20T06:23:31;5.80;99.90
3752;DHT22;50827;47.014;7.652;2023-12-20T06:25:57;5.80;99.90
3752;DHT22;50827;47.014;7.652;2023-12-20T06:28:24;5.80;99.90
3752;DHT22;50827;47.014;7.652;2023-12-20T06:30:51;5.80;99.90
3752;DHT22;50827;47.014;7.652;2023-12-20T06:33:19;5.80;99.90
3752;DHT22;50827;47.014;7.652;2023-12-20T06:35:48;5.80;99.90
3752;DHT22;50827;47.014;7.652;2023-12-20T06:38:15;5.80;99.90
3752;DHT22;50827;47.014;7.652;2023-12-20T06:40:42;5.90;99.90
3752;DHT22;50827;47.014;7.652;2023-12-20T06:43:09;5.90;99.90
3752;DHT22;50827;47.014;7.652;2023-12-20T06:45:51;5.90;99.90
3752;DHT22;50827;47.014;7.652;2023-12-20T06:48:18;5.90;99.90
3752;DHT22;50827;47.014;7.652;2023-12-20T06:50:46;5.90;99.90
3752;DHT22;50827;47.014;7.652;2023-12-20T06:53:13;6.00;99.90
3752;DHT22;50827;47.014;7.652;2023-12-20T06:55:39;6.00;99.90
3752;DHT22;50827;47.014;7.652;2023-12-20T06:58:06;6.00;99.90
3752;DHT22;50827;47.014;7.652;2023-12-20T07:00:33;6.00;99.90
3752;DHT22;50827;47.014;7.652;2023-12-20T07:03:00;6.00;99.90
3752;DHT22;50827;47.014;7.652;2023-12-20T07:05:27;6.00;99.90
3752;DHT22;50827;47.014;7.652;2023-12-20T07:07:54;6.00;99.90
3752;DHT22;50827;47.014;7.652;2023-12-20T07:10:21;6.00;99.90
3752;DHT22;50827;47.014;7.652;2023-12-20T07:12:48;5.90;99.90
3752;DHT22;50827;47.014;7.652;2023-12-20T07:15:15;5.90;99.90
3752;DHT22;50827;47.014;7.652;2023-12-20T07:17:42;5.90;99.90
3752;DHT22;50827;47.014;7.652;2023-12-20T07:20:11;6.00;99.90
3752;DHT22;50827;47.014;7.652;2023-12-20T07:22:38;5.90;99.90
3752;DHT22;50827;47.014;7.652;2023-12-20T07:25:06;5.90;99.90
3752;DHT22;50827;47.014;7.652;2023-12-20T07:27:33;5.90;99.90
3752;DHT22;50827;47.014;7.652;2023-12-20T07:30:00;5.90;99.90
3752;DHT22;50827;47.014;7.652;2023-12-20T07:32:27;5.90;99.90
3752;DHT22;50827;47.014;7.652;2023-12-20T07:34:54;5.90;99.90
3752;DHT22;50827;47.014;7.652;2023-12-20T07:37:21;5.90;99.90
3752;DHT22;50827;47.014;7.652;2023-12-20T07:39:48;5.90;99.90
3752;DHT22;50827;47.014;7.652;2023-12-20T07:42:15;5.90;99.90
3752;DHT22;50827;47.014;7.652;2023-12-20T07:44:41;6.00;99.90
3752;DHT22;50827;47.014;7.652;2023-12-20T07:47:08;5.90;99.90
3752;DHT22;50827;47.014;7.652;2023-12-20T07:49:35;6.00;99.90
3752;DHT22;50827;47.014;7.652;2023-12-20T07:52:02;6.00;99.90
3752;DHT22;50827;47.014;7.652;2023-12-20T07:54:29;6.00;99.90
3752;DHT22;50827;47.014;7.652;2023-12-20T07:56:57;6.00;99.90
3752;DHT22;50827;47.014;7.652;2023-12-20T07:59:24;6.10;99.90
3752;DHT22;50827;47.014;7.652;2023-12-20T08:01:58;6.10;99.90
3752;DHT22;50827;47.014;7.652;2023-12-20T08:04:26;6.10;99.90
3752;DHT22;50827;47.014;7.652;2023-12-20T08:06:54;6.10;99.90
3752;DHT22;50827;47.014;7.652;2023-12-20T08:09:21;6.10;99.90
3752;DHT22;50827;47.014;7.652;2023-12-20T08:11:48;6.10;99.90
3752;DHT22;50827;47.014;7.652;2023-12-20T08:14:15;6.10;99.90
3752;DHT22;50827;47.014;7.652;2023-12-20T08:16:42;6.10;99.90
3752;DHT22;50827;47.014;7.652;2023-12-20T08:19:09;6.10;99.90
3752;DHT22;50827;47.014;7.652;2023-12-20T08:21:36;6.20;99.90
3752;DHT22;50827;47.014;7.652;2023-12-20T08:24:04;6.20;99.90
3752;DHT22;50827;47.014;7.652;2023-12-20T08:26:34;6.20;99.90
3752;DHT22;50827;47.014;7.652;2023-12-20T08:29:04;6.20;99.90
3752;DHT22;50827;47.014;7.652;2023-12-20T08:31:33;6.20;99.90
3752;DHT22;50827;47.014;7.652;2023-12-20T08:34:01;6.20;99.90
3752;DHT22;50827;47.014;7.652;2023-12-20T08:36:32;6.30;99.90
3752;DHT22;50827;47.014;7.652;2023-12-20T08:38:58;6.30;99.90
3752;DHT22;50827;47.014;7.652;2023-12-20T08:41:30;6.30;99.90
3752;DHT22;50827;47.014;7.652;2023-12-20T08:43:56;6.30;99.90
3752;DHT22;50827;47.014;7.652;2023-12-20T08:46:26;6.30;99.90
3752;DHT22;50827;47.014;7.652;2023-12-20T08:48:56;6.30;99.90
3752;DHT22;50827;47.014;7.652;2023-12-20T08:51:26;6.40;99.90
3752;DHT22;50827;47.014;7.652;2023-12-20T08:53:56;6.50;99.90
3752;DHT22;50827;47.014;7.652;2023-12-20T08:56:26;6.50;99.90
3752;DHT22;50827;47.014;7.652;2023-12-20T08:58:57;6.50;99.90
3752;DHT22;50827;47.014;7.652;2023-12-20T09:01:26;6.50;99.90
3752;DHT22;50827;47.014;7.652;2023-12-20T09:03:53;6.50;99.90
3752;DHT22;50827;47.014;7.652;2023-12-20T09:06:20;6.50;99.90
3752;DHT22;50827;47.014;7.652;2023-12-20T09:08:47;6.60;99.90
3752;DHT22;50827;47.014;7.652;2023-12-20T09:11:14;6.60;99.90
3752;DHT22;50827;47.014;7.652;2023-12-20T09:13:41;6.60;99.90
3752;DHT22;50827;47.014;7.652;2023-12-20T09:16:08;6.60;99.90
3752;DHT22;50827;47.014;7.652;2023-12-20T09:18:35;6.60;99.90
3752;DHT22;50827;47.014;7.652;2023-12-20T09:21:02;6.70;99.90
3752;DHT22;50827;47.014;7.652;2023-12-20T09:23:28;6.70;99.90
3752;DHT22;50827;47.014;7.652;2023-12-20T09:25:55;6.70;99.90
3752;DHT22;50827;47.014;7.652;2023-12-20T09:28:23;6.70;99.90
3752;DHT22;50827;47.014;7.652;2023-12-20T09:30:50;6.70;99.90
3752;DHT22;50827;47.014;7.652;2023-12-20T09:33:17;6.70;99.90
3752;DHT22;50827;47.014;7.652;2023-12-20T09:35:44;6.70;99.90
3752;DHT22;50827;47.014;7.652;2023-12-20T09:38:11;6.70;99.90
3752;DHT22;50827;47.014;7.652;2023-12-20T09:40:41;6.70;99.90
3752;DHT22;50827;47.014;7.652;2023-12-20T09:43:19;6.80;99.90
3752;DHT22;50827;47.014;7.652;2023-12-20T09:45:52;6.80;99.90
3752;DHT22;50827;47.014;7.652;2023-12-20T09:48:20;6.80;99.90
3752;DHT22;50827;47.014;7.652;2023-12-20T09:50:47;6.80;99.90
3752;DHT22;50827;47.014;7.652;2023-12-20T09:53:19;6.80;99.90
3752;DHT22;50827;47.014;7.652;2023-12-20T09:55:47;6.90;99.90
3752;DHT22;50827;47.014;7.652;2023-12-20T09:58:14;6.90;99.90
3752;DHT22;50827;47.014;7.652;2023-12-20T10:00:41;7.00;99.90
3752;DHT22;50827;47.014;7.652;2023-12-20T10:03:08;7.00;99.90
3752;DHT22;50827;47.014;7.652;2023-12-20T10:05:35;7.00;99.90
3752;DHT22;50827;47.014;7.652;2023-12-20T10:08:03;7.00;99.90
3752;DHT22;50827;47.014;7.652;2023-12-20T10:10:30;7.10;99.90
3752;DHT22;50827;47.014;7.652;2023-12-20T10:13:11;7.10;99.90
3752;DHT22;50827;47.014;7.652;2023-12-20T10:15:39;7.10;99.90
3752;DHT22;50827;47.014;7.652;2023-12-20T10:18:08;7.10;99.90
3752;DHT22;50827;47.014;7.652;2023-12-20T10:20:36;7.10;99.90
3752;DHT22;50827;47.014;7.652;2023-12-20T10:23:02;7.20;99.90
3752;DHT22;50827;47.014;7.652;2023-12-20T10:25:30;7.20;99.90
3752;DHT22;50827;47.014;7.652;2023-12-20T10:28:12;7.30;99.90
3752;DHT22;50827;47.014;7.652;2023-12-20T10:30:41;7.30;99.90
3752;DHT22;50827;47.014;7.652;2023-12-20T10:33:09;7.30;99.90
3752;DHT22;50827;47.014;7.652;2023-12-20T10:35:38;7.20;99.90
3752;DHT22;50827;47.014;7.652;2023-12-20T10:38:11;7.30;99.90
3752;DHT22;50827;47.014;7.652;2023-12-20T10:40:40;7.30;99.90
3752;DHT22;50827;47.014;7.652;2023-12-20T10:43:10;7.40;99.90
3752;DHT22;50827;47.014;7.652;2023-12-20T10:45:37;7.40;99.90
3752;DHT22;50827;47.014;7.652;2023-12-20T10:48:04;7.50;99.90
3752;DHT22;50827;47.014;7.652;2023-12-20T10:50:31;7.40;99.90
3752;DHT22;50827;47.014;7.652;2023-12-20T10:52:59;7.50;99.90
3752;DHT22;50827;47.014;7.652;2023-12-20T10:55:26;7.50;99.90
3752;DHT22;50827;47.014;7.652;2023-12-20T10:58:00;7.50;99.90
3752;DHT22;50827;47.014;7.652;2023-12-20T11:00:31;7.50;99.90
3752;DHT22;50827;47.014;7.652;2023-12-20T11:03:02;7.60;99.90
3752;DHT22;50827;47.014;7.652;2023-12-20T11:05:58;7.60;99.90
3752;DHT22;50827;47.014;7.652;2023-12-20T11:08:33;7.60;99.90
3752;DHT22;50827;47.014;7.652;2023-12-20T11:11:33;7.60;99.90
3752;DHT22;50827;47.014;7.652;2023-12-20T11:14:07;7.60;99.90
3752;DHT22;50827;47.014;7.652;2023-12-20T11:16:37;7.70;99.90
3752;DHT22;50827;47.014;7.652;2023-12-20T11:19:17;7.70;99.90
3752;DHT22;50827;47.014;7.652;2023-12-20T11:21:46;7.70;99.90
3752;DHT22;50827;47.014;7.652;2023-12-20T11:24:12;7.70;99.90
3752;DHT22;50827;47.014;7.652;2023-12-20T11:26:47;7.80;99.90
3752;DHT22;50827;47.014;7.652;2023-12-20T11:29:46;7.80;99.90
3752;DHT22;50827;47.014;7.652;2023-12-20T11:35:16;7.80;99.90
3752;DHT22;50827;47.014;7.652;2023-12-20T11:37:43;7.80;99.90
3752;DHT22;50827;47.014;7.652;2023-12-20T11:40:16;7.80;99.90
3752;DHT22;50827;47.014;7.652;2023-12-20T11:42:52;8.30;99.90
3752;DHT22;50827;47.014;7.652;2023-12-20T11:45:24;8.20;99.90
3752;DHT22;50827;47.014;7.652;2023-12-20T11:47:55;8.20;99.90
3752;DHT22;50827;47.014;7.652;2023-12-20T11:50:24;8.20;99.90
3752;DHT22;50827;47.014;7.652;2023-12-20T11:52:52;8.20;99.90
3752;DHT22;50827;47.014;7.652;2023-12-20T11:55:20;8.20;99.90
3752;DHT22;50827;47.014;7.652;2023-12-20T11:57:47;8.20;99.90
3752;DHT22;50827;47.014;7.652;2023-12-20T12:00:15;8.30;99.90
3752;DHT22;50827;47.014;7.652;2023-12-20T12:02:42;8.30;99.90
3752;DHT22;50827;47.014;7.652;2023-12-20T12:05:12;8.40;99.90
3752;DHT22;50827;47.014;7.652;2023-12-20T12:07:38;8.40;99.90
3752;DHT22;50827;47.014;7.652;2023-12-20T12:10:06;8.40;99.90
3752;DHT22;50827;47.014;7.652;2023-12-20T12:12:34;8.30;99.90
3752;DHT22;50827;47.014;7.652;2023-12-20T12:15:02;8.30;99.90
3752;DHT22;50827;47.014;7.652;2023-12-20T12:17:29;8.30;99.90
3752;DHT22;50827;47.014;7.652;2023-12-20T12:20:05;8.30;99.90
3752;DHT22;50827;47.014;7.652;2023-12-20T12:22:33;8.20;99.90
3752;DHT22;50827;47.014;7.652;2023-12-20T12:25:09;8.30;99.90
3752;DHT22;50827;47.014;7.652;2023-12-20T12:27:37;8.30;99.90
3752;DHT22;50827;47.014;7.652;2023-12-20T12:30:05;8.30;99.90
3752;DHT22;50827;47.014;7.652;2023-12-20T12:32:36;8.30;99.90
3752;DHT22;50827;47.014;7.652;2023-12-20T12:35:04;8.40;99.90
3752;DHT22;50827;47.014;7.652;2023-12-20T12:37:38;8.40;99.90
3752;DHT22;50827;47.014;7.652;2023-12-20T12:40:13;8.40;99.90
3752;DHT22;50827;47.014;7.652;2023-12-20T12:42:44;8.50;99.90
3752;DHT22;50827;47.014;7.652;2023-12-20T12:45:11;8.50;99.90
3752;DHT22;50827;47.014;7.652;2023-12-20T12:47:39;8.40;99.90
3752;DHT22;50827;47.014;7.652;2023-12-20T12:50:06;8.40;99.90
3752;DHT22;50827;47.014;7.652;2023-12-20T12:52:33;8.30;99.90
3752;DHT22;50827;47.014;7.652;2023-12-20T12:55:01;8.30;99.90
3752;DHT22;50827;47.014;7.652;2023-12-20T12:57:30;8.20;99.90
3752;DHT22;50827;47.014;7.652;2023-12-20T12:59:57;8.20;99.90
3752;DHT22;50827;47.014;7.652;2023-12-20T13:02:24;8.10;99.90
3752;DHT22;50827;47.014;7.652;2023-12-20T13:04:52;8.00;99.90
3752;DHT22;50827;47.014;7.652;2023-12-20T13:07:18;7.90;99.90
3752;DHT22;50827;47.014;7.652;2023-12-20T13:09:45;7.90;99.90
3752;DHT22;50827;47.014;7.652;2023-12-20T13:12:12;7.80;99.90
3752;DHT22;50827;47.014;7.652;2023-12-20T13:14:39;7.80;99.90
3752;DHT22;50827;47.014;7.652;2023-12-20T13:17:07;7.80;99.90
3752;DHT22;50827;47.014;7.652;2023-12-20T13:19:34;7.80;99.90
3752;DHT22;50827;47.014;7.652;2023-12-20T13:22:01;7.70;99.90
3752;DHT22;50827;47.014;7.652;2023-12-20T13:24:27;7.70;99.90
3752;DHT22;50827;47.014;7.652;2023-12-20T13:26:56;7.70;99.90
3752;DHT22;50827;47.014;7.652;2023-12-20T13:29:24;7.70;99.90
3752;DHT22;50827;47.014;7.652;2023-12-20T13:31:53;7.70;99.90
3752;DHT22;50827;47.014;7.652;2023-12-20T13:34:20;7.70;99.90
3752;DHT22;50827;47.014;7.652;2023-12-20T13:36:48;7.60;99.90
3752;DHT22;50827;47.014;7.652;2023-12-20T13:39:17;7.60;99.90
3752;DHT22;50827;47.014;7.652;2023-12-20T13:41:44;7.60;99.90
3752;DHT22;50827;47.014;7.652;2023-12-20T13:44:11;7.60;99.90
3752;DHT22;50827;47.014;7.652;2023-12-20T13:46:40;7.50;99.90
3752;DHT22;50827;47.014;7.652;2023-12-20T13:49:07;7.50;99.90
3752;DHT22;50827;47.014;7.652;2023-12-20T13:51:34;7.50;99.90
3752;DHT22;50827;47.014;7.652;2023-12-20T13:54:01;7.40;99.90
3752;DHT22;50827;47.014;7.652;2023-12-20T13:56:27;7.40;99.90
3752;DHT22;50827;47.014;7.652;2023-12-20T13:58:54;7.40;99.90
3752;DHT22;50827;47.014;7.652;2023-12-20T14:01:21;7.40;99.90
3752;DHT22;50827;47.014;7.652;2023-12-20T14:03:48;7.30;99.90
3752;DHT22;50827;47.014;7.652;2023-12-20T14:06:15;7.30;99.90
3752;DHT22;50827;47.014;7.652;2023-12-20T14:08:43;7.20;99.90
3752;DHT22;50827;47.014;7.652;2023-12-20T14:11:09;7.20;99.90
3752;DHT22;50827;47.014;7.652;2023-12-20T14:13:37;7.10;99.90
3752;DHT22;50827;47.014;7.652;2023-12-20T14:16:04;7.10;99.90
3752;DHT22;50827;47.014;7.652;2023-12-20T14:18:31;7.10;99.90
3752;DHT22;50827;47.014;7.652;2023-12-20T14:21:05;7.10;99.90
3752;DHT22;50827;47.014;7.652;2023-12-20T14:23:50;7.10;99.90
3752;DHT22;50827;47.014;7.652;2023-12-20T14:26:23;7.00;99.90
3752;DHT22;50827;47.014;7.652;2023-12-20T14:29:04;7.10;99.90
3752;DHT22;50827;47.014;7.652;2023-12-20T14:31:31;7.00;99.90
3752;DHT22;50827;47.014;7.652;2023-12-20T14:33:57;7.00;99.90
3752;DHT22;50827;47.014;7.652;2023-12-20T14:36:25;7.00;99.90
3752;DHT22;50827;47.014;7.652;2023-12-20T14:38:51;7.00;99.90
3752;DHT22;50827;47.014;7.652;2023-12-20T14:41:18;7.00;99.90
3752;DHT22;50827;47.014;7.652;2023-12-20T14:43:45;7.00;99.90
3752;DHT22;50827;47.014;7.652;2023-12-20T14:46:14;7.00;99.90
3752;DHT22;50827;47.014;7.652;2023-12-20T14:48:42;6.90;99.90
3752;DHT22;50827;47.014;7.652;2023-12-20T14:51:11;6.90;99.90
3752;DHT22;50827;47.014;7.652;2023-12-20T14:53:42;6.90;99.90
3752;DHT22;50827;47.014;7.652;2023-12-20T14:56:09;6.90;99.90
3752;DHT22;50827;47.014;7.652;2023-12-20T14:58:46;6.90;99.90
3752;DHT22;50827;47.014;7.652;2023-12-20T15:01:17;6.90;99.90
3752;DHT22;50827;47.014;7.652;2023-12-20T15:03:48;6.80;99.90
3752;DHT22;50827;47.014;7.652;2023-12-20T15:06:18;6.90;99.90
3752;DHT22;50827;47.014;7.652;2023-12-20T15:08:50;6.90;99.90
3752;DHT22;50827;47.014;7.652;2023-12-20T15:11:21;6.90;99.90
3752;DHT22;50827;47.014;7.652;2023-12-20T15:13:53;6.90;99.90
3752;DHT22;50827;47.014;7.652;2023-12-20T15:16:24;6.90;99.90
3752;DHT22;50827;47.014;7.652;2023-12-20T15:18:52;6.90;99.90
3752;DHT22;50827;47.014;7.652;2023-12-20T15:21:21;6.80;99.90
3752;DHT22;50827;47.014;7.652;2023-12-20T15:23:58;6.80;99.90
3752;DHT22;50827;47.014;7.652;2023-12-20T15:26:33;6.80;99.90
3752;DHT22;50827;47.014;7.652;2023-12-20T15:29:00;6.70;99.90
3752;DHT22;50827;47.014;7.652;2023-12-20T15:31:31;6.60;99.90
3752;DHT22;50827;47.014;7.652;2023-12-20T15:34:00;6.50;99.90
3752;DHT22;50827;47.014;7.652;2023-12-20T15:36:30;6.40;99.90
3752;DHT22;50827;47.014;7.652;2023-12-20T15:39:00;6.30;99.90
3752;DHT22;50827;47.014;7.652;2023-12-20T15:41:32;6.20;99.90
3752;DHT22;50827;47.014;7.652;2023-12-20T15:44:02;6.10;99.90
3752;DHT22;50827;47.014;7.652;2023-12-20T15:46:32;6.10;99.90
3752;DHT22;50827;47.014;7.652;2023-12-20T15:48:59;6.10;99.90
3752;DHT22;50827;47.014;7.652;2023-12-20T15:51:29;6.00;99.90
3752;DHT22;50827;47.014;7.652;2023-12-20T15:53:58;6.00;99.90
3752;DHT22;50827;47.014;7.652;2023-12-20T15:56:29;5.90;99.90
3752;DHT22;50827;47.014;7.652;2023-12-20T15:58:57;5.90;99.90
3752;DHT22;50827;47.014;7.652;2023-12-20T16:01:25;5.90;99.90
3752;DHT22;50827;47.014;7.652;2023-12-20T16:03:52;5.90;99.90
3752;DHT22;50827;47.014;7.652;2023-12-20T16:06:25;5.80;99.90
3752;DHT22;50827;47.014;7.652;2023-12-20T16:08:53;5.80;99.90
3752;DHT22;50827;47.014;7.652;2023-12-20T16:11:21;5.80;99.90
3752;DHT22;50827;47.014;7.652;2023-12-20T16:13:47;5.80;99.90
3752;DHT22;50827;47.014;7.652;2023-12-20T16:16:14;5.70;99.90
3752;DHT22;50827;47.014;7.652;2023-12-20T16:18:41;5.80;99.90
3752;DHT22;50827;47.014;7.652;2023-12-20T16:21:08;5.80;99.90